This is the latest recevied weather packets stored in our database for station/object OM1PU-6. If no packets are shown the sender has not sent any weather packets the latest 10 day(s).
| Time | Temp. | Humidity | Pressure | Rain* | Wind** | Luminosity | Snow |
|---|---|---|---|---|---|---|---|
| 1777738695 | 24.44° C | 36% | 1030.9 hPa | 0 mm | - | - | - |
| 1777737796 | 26.11° C | 34% | 1031.2 hPa | 0 mm | - | - | - |
| 1777736895 | 25.56° C | 34% | 1031.7 hPa | 0 mm | - | - | - |
| 1777735995 | 25.56° C | 35% | 1031.7 hPa | 0 mm | - | - | - |
| 1777735095 | 25° C | 36% | 1032 hPa | 0 mm | - | - | - |
| 1777734195 | 25.56° C | 35% | 1031.8 hPa | 0 mm | - | - | - |
| 1777733295 | 25° C | 35% | 1032.1 hPa | 0 mm | - | - | - |
| 1777732394 | 27.22° C | 31% | 1032.2 hPa | 0 mm | - | - | - |
| 1777731496 | 26.11° C | 30% | 1032.3 hPa | 0 mm | - | - | - |
| 1777730595 | 26.67° C | 31% | 1032.3 hPa | 0 mm | - | - | - |
| 1777729695 | 26.67° C | 31% | 1032.5 hPa | 0 mm | - | - | - |
| 1777728795 | 26.67° C | 32% | 1032.6 hPa | 0 mm | - | - | - |
| 1777727895 | 26.67° C | 32% | 1032.8 hPa | 0 mm | - | - | - |
| 1777726995 | 25.56° C | 33% | 1033 hPa | 0 mm | - | - | - |
| 1777726095 | 25° C | 36% | 1033.2 hPa | 0 mm | - | - | - |
| 1777725195 | 25.56° C | 33% | 1033.4 hPa | 0 mm | - | - | - |
| 1777724295 | 24.44° C | 35% | 1033.4 hPa | 0 mm | - | - | - |
| 1777723395 | 25° C | 39% | 1033.7 hPa | 0 mm | - | - | - |
| 1777722495 | 24.44° C | 36% | 1033.9 hPa | 0 mm | - | - | - |
| 1777721595 | 24.44° C | 35% | 1034.2 hPa | 0 mm | - | - | - |
| 1777720695 | 24.44° C | 37% | 1034.3 hPa | 0 mm | - | - | - |
| 1777719795 | 22.78° C | 40% | 1034.4 hPa | 0 mm | - | - | - |
| 1777718895 | 23.33° C | 39% | 1034.6 hPa | 0 mm | - | - | - |
| 1777717995 | 24.44° C | 38% | 1034.8 hPa | 0 mm | - | - | - |
| 1777717095 | 23.89° C | 39% | 1035.2 hPa | 0 mm | - | - | - |
* Rain latest 24 hours (hover to see other rain measurements)
** Current wind speed in m/s (hover to see current wind gust speed)